Time;durP1;ratioP1;P1;durP2;ratioP2;P2;SDS_P1;SDS_P2;PMS_P1;PMS_P2;Temp;Humidity;BMP_temperature;BMP_pressure;BME280_temperature;BME280_humidity;BME280_pressure;Samples;Min_cycle;Max_cycle;Signal;HPM_P1;HPM_P2
2022/02/05 00:00:39;;;;;;;26.63;12.40;;;;;;;-6.55;60.79;99882.59;5018199;28;20032;-81
2022/02/05 00:03:18;;;;;;;30.20;12.60;;;;;;;-6.75;60.92;99855.19;5017553;28;20068;-76
2022/02/05 00:43:10;;;;;;;29.05;13.07;;;;;;;-5.86;60.38;99864.66;5035068;28;20051;-80
2022/02/05 00:45:40;;;;;;;32.10;12.90;;;;;;;-5.98;60.62;99824.25;5052340;28;20041;-77
2022/02/05 00:48:13;;;;;;;28.23;13.05;;;;;;;-5.70;60.68;99875.66;5034340;28;20040;-82
2022/02/05 00:50:44;;;;;;;29.75;12.85;;;;;;;-5.81;60.85;99859.84;5018647;28;20032;-79
2022/02/05 00:53:16;;;;;;;30.95;13.45;;;;;;;-5.58;61.03;99878.88;5023995;28;20057;-77
2022/02/05 00:55:51;;;;;;;28.27;12.90;;;;;;;-5.50;61.03;99877.69;5059539;28;20040;-78
2022/02/05 00:58:16;;;;;;;30.83;12.60;;;;;;;-5.46;60.87;99869.47;5051279;28;20037;-81
2022/02/05 01:00:42;;;;;;;27.17;13.23;;;;;;;-5.55;60.45;99852.84;5016888;28;20040;-80
2022/02/05 01:03:08;;;;;;;27.63;13.05;;;;;;;-5.59;60.64;99828.94;5033445;28;20110;-78
2022/02/05 01:05:35;;;;;;;26.65;13.07;;;;;;;-5.40;60.83;99857.88;5033815;28;20040;-79
2022/02/05 01:08:01;;;;;;;31.13;13.25;;;;;;;-5.38;60.95;99862.28;5034152;28;20045;-78
2022/02/05 01:10:27;;;;;;;24.50;12.43;;;;;;;-5.31;60.38;99868.56;5016730;28;20058;-80
2022/02/05 01:13:05;;;;;;;30.35;13.85;;;;;;;-5.47;60.54;99824.59;5033480;28;20119;-78
2022/02/05 01:15:38;;;;;;;28.90;13.38;;;;;;;-5.30;60.42;99852.53;5015949;28;20087;-76
2022/02/05 01:18:07;;;;;;;28.23;13.52;;;;;;;-5.52;60.49;99833.59;5001047;28;20043;-75
2022/02/05 01:23:06;;;;;;;27.38;13.05;;;;;;;-5.52;60.28;99850.50;5050161;28;20120;-74
2022/02/05 01:25:37;;;;;;;24.63;12.35;;;;;;;-5.43;60.89;99850.13;5043842;28;20039;-77
2022/02/05 01:28:14;;;;;;;27.92;12.65;;;;;;;-5.38;60.36;99847.06;5053215;28;20416;-78
2022/02/05 01:30:44;;;;;;;28.02;13.40;;;;;;;-5.52;60.47;99812.44;5033942;28;20078;-79
2022/02/05 01:33:37;;;;;;;22.40;12.43;;;;;;;-5.41;60.87;99820.66;5035055;28;20117;-78
2022/02/05 02:05:39;;;;;;;27.98;12.27;;;;;;;-5.42;59.79;99852.72;5035156;28;20045;-77
2022/02/05 02:14:17;;;;;;;26.08;12.75;;;;;;;-5.46;59.51;99833.06;4973106;28;20469;-79
2022/02/05 02:22:12;;;;;;;25.70;12.20;;;;;;;-5.43;59.75;99799.41;5051304;28;20049;-80
2022/02/05 02:32:20;;;;;;;26.58;12.48;;;;;;;-5.24;59.05;99812.28;5023295;28;20044;-78
2022/02/05 02:34:51;;;;;;;28.75;12.35;;;;;;;-5.46;59.30;99778.16;5046844;28;20072;-79
2022/02/05 02:37:27;;;;;;;25.52;12.45;;;;;;;-5.29;59.18;99789.19;5054824;28;20480;-79
2022/02/05 02:40:19;;;;;;;26.17;11.80;;;;;;;-5.00;59.72;99832.19;5038303;28;20053;-77
2022/02/05 02:42:49;;;;;;;30.80;12.90;;;;;;;-5.01;59.01;99822.81;5022078;28;20508;-82
2022/02/05 02:45:14;;;;;;;25.13;11.90;;;;;;;-5.03;58.97;99816.78;5039191;28;20078;-80
2022/02/05 02:47:43;;;;;;;21.73;11.65;;;;;;;-4.93;59.21;99821.56;5038442;28;20056;-76
2022/02/05 02:56:23;;;;;;;26.00;11.88;;;;;;;-5.01;58.86;99803.38;5039986;28;20059;-78
2022/02/05 02:58:29;;;;;;;28.67;12.75;;;;;;;-4.64;58.58;99827.31;5037407;28;20190;-75
2022/02/05 03:00:58;;;;;;;26.92;13.05;;;;;;;-4.81;58.42;99798.47;5062107;28;20070;-78
2022/02/05 03:03:25;;;;;;;25.83;13.38;;;;;;;-4.71;58.48;99813.41;5068801;28;20040;-77
2022/02/05 03:05:51;;;;;;;25.45;13.38;;;;;;;-4.70;57.96;99802.47;5024161;28;20045;-80
2022/02/05 03:08:16;;;;;;;26.80;11.25;;;;;;;-4.47;58.27;99823.13;5039088;28;20037;-79
2022/02/05 03:10:42;;;;;;;27.63;13.02;;;;;;;-4.62;58.15;99790.16;5035417;28;20033;-79
2022/02/05 03:13:08;;;;;;;27.38;12.10;;;;;;;-4.55;57.76;99794.78;5019901;28;20647;-82
2022/02/05 03:15:39;;;;;;;31.52;13.20;;;;;;;-4.52;58.21;99801.69;5003089;28;20512;-81
2022/02/05 03:18:11;;;;;;;31.60;13.02;;;;;;;-4.36;57.66;99823.66;5018506;28;20060;-78
2022/02/05 03:20:36;;;;;;;27.02;11.63;;;;;;;-4.59;57.81;99780.19;5035395;28;20124;-80
2022/02/05 03:23:03;;;;;;;25.17;11.63;;;;;;;-4.32;57.73;99820.50;5035279;28;20144;-80
2022/02/05 03:25:31;;;;;;;25.15;11.40;;;;;;;-4.46;56.86;99796.91;5035568;28;20044;-78
2022/02/05 03:27:58;;;;;;;22.50;10.90;;;;;;;-4.49;56.92;99798.41;5035800;28;20098;-77
2022/02/05 03:30:24;;;;;;;20.25;9.98;;;;;;;-4.49;56.88;99800.94;5035871;28;20079;-78
2022/02/05 03:32:50;;;;;;;20.08;10.35;;;;;;;-4.42;57.29;99813.19;5052560;28;20040;-76
2022/02/05 03:35:16;;;;;;;20.77;9.80;;;;;;;-4.44;56.77;99812.22;5053701;28;20412;-75
2022/02/05 03:37:43;;;;;;;25.08;10.85;;;;;;;-4.44;56.67;99810.59;5035172;28;20036;-76
2022/02/05 03:40:09;;;;;;;23.60;10.60;;;;;;;-4.57;56.92;99783.66;5053854;28;20516;-80
2022/02/05 03:42:35;;;;;;;24.63;11.35;;;;;;;-4.40;56.50;99815.00;5038400;28;20048;-77
2022/02/05 03:45:02;;;;;;;24.67;11.02;;;;;;;-4.48;56.23;99807.78;5041818;28;20032;-78
2022/02/05 03:47:32;;;;;;;22.58;10.38;;;;;;;-4.49;56.50;99803.50;5041302;28;20056;-75
2022/02/05 03:49:58;;;;;;;25.38;11.70;;;;;;;-4.63;56.31;99775.72;5037874;28;20048;-78
2022/02/05 03:52:24;;;;;;;20.23;10.40;;;;;;;-4.48;56.41;99795.97;5019219;28;20065;-82
2022/02/05 03:54:50;;;;;;;22.60;10.98;;;;;;;-4.33;55.97;99812.78;5017680;28;20159;-78
2022/02/05 03:57:16;;;;;;;22.02;10.05;;;;;;;-4.34;56.00;99814.47;5053020;28;20028;-80
2022/02/05 03:59:41;;;;;;;24.15;10.73;;;;;;;-4.33;55.82;99812.78;5034652;28;20037;-80
2022/02/05 04:02:08;;;;;;;26.73;11.90;;;;;;;-4.30;55.92;99818.03;5019009;28;20727;-79
2022/02/05 04:04:34;;;;;;;25.35;10.98;;;;;;;-4.56;55.79;99770.19;5053525;28;20479;-79
2022/02/05 04:07:01;;;;;;;19.67;10.73;;;;;;;-4.30;55.63;99818.88;5035661;28;20041;-80
2022/02/05 04:09:33;;;;;;;26.15;11.85;;;;;;;-4.34;55.48;99808.50;5019090;28;20083;-80
2022/02/05 04:17:32;;;;;;;21.33;10.68;;;;;;;-4.41;55.37;99817.47;5053152;28;20512;-77
2022/02/05 04:19:58;;;;;;;21.92;10.48;;;;;;;-4.44;55.19;99807.16;5038114;28;20037;-76
2022/02/05 04:22:24;;;;;;;26.95;12.35;;;;;;;-4.41;55.03;99805.63;5036338;28;20053;-79
2022/02/05 04:24:50;;;;;;;26.65;12.25;;;;;;;-4.47;55.37;99796.81;5019456;28;20122;-79
2022/02/05 04:27:15;;;;;;;23.40;11.80;;;;;;;-4.47;55.38;99807.88;5029865;28;20041;-77
2022/02/05 04:29:41;;;;;;;23.67;11.23;;;;;;;-4.50;55.44;99783.97;5048221;28;20161;-79
2022/02/05 04:32:07;;;;;;;26.05;12.20;;;;;;;-4.27;55.20;99813.97;5047652;28;20032;-76
2022/02/05 04:34:34;;;;;;;26.83;11.77;;;;;;;-4.47;55.48;99774.84;5040160;28;20055;-77
2022/02/05 04:37:02;;;;;;;30.35;13.88;;;;;;;-4.18;54.97;99815.22;5034569;28;20040;-78
2022/02/05 04:39:28;;;;;;;27.35;12.18;;;;;;;-4.32;55.00;99792.53;5054961;28;20091;-79
2022/02/05 04:42:09;;;;;;;28.80;13.32;;;;;;;-4.24;54.87;99828.50;5031766;28;20037;-76
2022/02/05 04:45:01;;;;;;;28.80;12.80;;;;;;;-4.32;55.32;99810.34;5025723;28;20173;-80
2022/02/05 05:05:18;;;;;;;44.80;18.20;;;;;;;-4.91;54.78;99822.50;5054622;28;20066;-79
2022/02/05 05:13:12;;;;;;;46.15;17.17;;;;;;;-4.97;54.96;99834.91;5023657;28;20045;-78
2022/02/05 05:20:57;;;;;;;;;;;;;;;-4.97;55.66;99837.44;5040309;28;20045;-78
2022/02/05 05:23:23;;;;;;;50.63;19.08;;;;;;;-4.99;55.62;99817.03;5036088;28;19920;-79
2022/02/05 05:25:49;;;;;;;50.28;20.00;;;;;;;-4.88;55.84;99819.28;5018025;28;20045;-78
2022/02/05 05:28:15;;;;;;;46.92;18.48;;;;;;;-5.09;56.06;99781.81;5035115;28;20041;-80
2022/02/05 05:30:40;;;;;;;43.92;18.85;;;;;;;-4.91;55.97;99797.13;5051909;28;20570;-76
2022/02/05 05:33:11;;;;;;;50.88;18.55;;;;;;;-4.71;55.80;99812.53;5050746;28;20055;-78
2022/02/05 05:35:37;;;;;;;57.80;20.42;;;;;;;-4.90;55.71;99780.25;5016795;28;20111;-77
2022/02/05 05:38:03;;;;;;;49.03;19.67;;;;;;;-4.67;55.68;99827.16;5051422;28;20041;-77
2022/02/05 05:40:30;;;;;;;46.20;19.60;;;;;;;-4.81;55.68;99805.25;5034021;28;20048;-79
2022/02/05 05:43:03;;;;;;;46.53;19.15;;;;;;;-4.91;55.87;99779.34;5001539;28;20300;-78
2022/02/05 05:48:29;;;;;;;51.38;20.88;;;;;;;-4.57;56.17;99788.75;5014583;28;20449;-78
2022/02/05 05:51:00;;;;;;;48.72;21.00;;;;;;;-4.49;55.37;99799.31;5035871;28;20045;-79
2022/02/05 05:53:29;;;;;;;54.08;19.65;;;;;;;-4.91;55.78;99720.09;5046020;28;20511;-78
2022/02/05 05:55:57;;;;;;;53.47;21.45;;;;;;;-4.74;56.05;99738.72;5035550;28;20048;-81
2022/02/05 05:58:23;;;;;;;47.33;18.45;;;;;;;-4.34;55.44;99814.47;5052268;28;20037;-79
2022/02/05 06:00:49;;;;;;;38.80;18.35;;;;;;;-4.72;55.78;99737.13;5021271;28;20043;-80
2022/02/05 06:03:16;;;;;;;42.53;19.10;;;;;;;-4.69;55.87;99733.13;5022749;28;20041;-79
2022/02/05 06:05:42;;;;;;;50.72;19.88;;;;;;;-4.43;55.68;99758.97;5021648;28;20048;-79
2022/02/05 06:08:08;;;;;;;44.17;19.75;;;;;;;-4.20;55.85;99805.00;5021492;28;20037;-79
2022/02/05 06:10:36;;;;;;;40.65;17.77;;;;;;;-4.46;55.41;99761.34;5037877;28;20393;-77
2022/02/05 06:13:03;;;;;;;43.55;19.42;;;;;;;-4.13;55.64;99801.09;5039849;28;20044;-77
2022/02/05 06:15:29;;;;;;;41.85;18.33;;;;;;;-4.29;55.18;99758.78;5038820;28;20067;-82
2022/02/05 06:17:55;;;;;;;65.03;24.25;;;;;;;-4.44;55.05;99754.69;5005638;28;20041;-80
2022/02/05 06:20:20;;;;;;;69.25;26.13;;;;;;;-4.25;55.04;99781.88;5039238;28;20033;-79
2022/02/05 06:22:46;;;;;;;59.55;22.45;;;;;;;-4.19;55.11;99785.53;5035523;28;20052;-81
2022/02/05 06:25:17;;;;;;;56.22;23.83;;;;;;;-4.40;55.04;99746.41;5025579;28;20064;-81
2022/02/05 06:27:45;;;;;;;59.28;23.88;;;;;;;-4.06;55.30;99795.50;5038075;28;20131;-80
2022/02/05 06:30:11;;;;;;;61.35;23.95;;;;;;;-4.12;55.35;99752.00;5038747;28;20060;-80
2022/02/05 06:32:43;;;;;;;55.03;21.10;;;;;;;-4.08;55.13;99751.34;5056769;28;20033;-81
2022/02/05 06:35:10;;;;;;;45.72;21.48;;;;;;;-4.45;54.83;99689.44;5001714;28;20064;-80
2022/02/05 06:37:38;;;;;;;54.65;21.48;;;;;;;-3.83;54.67;99786.47;4985377;28;20433;-80
2022/02/05 06:40:09;;;;;;;57.40;21.35;;;;;;;-3.78;54.96;99781.59;5036089;28;20120;-81
2022/02/05 06:42:48;;;;;;;42.80;20.92;;;;;;;-4.45;54.44;99666.56;5003607;28;20095;-82
2022/02/05 06:45:15;;;;;;;47.80;21.52;;;;;;;-4.20;54.50;99698.25;5035789;28;20070;-80
2022/02/05 06:47:42;;;;;;;49.45;20.85;;;;;;;-3.90;54.36;99753.06;5018647;28;20444;-79
2022/02/05 06:50:08;;;;;;;52.05;21.70;;;;;;;-3.89;54.43;99754.81;5035125;28;20076;-82
2022/02/05 06:52:35;;;;;;;56.67;22.63;;;;;;;-3.73;54.33;99785.25;4985160;28;20529;-82
2022/02/05 06:55:07;;;;;;;48.72;21.42;;;;;;;-4.56;54.63;99643.16;5037222;28;20542;-79
2022/02/05 06:57:33;;;;;;;53.95;21.08;;;;;;;-3.64;54.47;99778.03;5002999;28;20171;-79
2022/02/05 06:59:59;;;;;;;55.80;24.13;;;;;;;-3.74;54.76;99741.91;5007105;28;20037;-80
2022/02/05 07:02:29;;;;;;;54.85;23.10;;;;;;;-3.59;54.50;99757.03;5022412;28;20073;-84
2022/02/05 07:04:58;;;;;;;59.92;22.67;;;;;;;-3.92;54.30;99683.44;5003164;28;20045;-82
2022/02/05 07:07:24;;;;;;;52.97;22.20;;;;;;;-3.43;54.37;99751.91;5007608;28;20576;-80
2022/02/05 07:09:51;;;;;;;55.30;21.08;;;;;;;-3.51;54.73;99736.25;5011837;28;20104;-84
2022/02/05 07:12:20;;;;;;;57.47;21.48;;;;;;;-3.40;54.33;99746.91;4990126;28;20047;-80
2022/02/05 07:15:01;;;;;;;55.67;21.63;;;;;;;-3.36;54.19;99753.06;5042028;28;20045;-81
2022/02/05 07:20:09;;;;;;;61.40;25.75;;;;;;;-3.15;54.32;99759.94;5039253;28;20041;-81
2022/02/05 07:22:48;;;;;;;57.63;22.60;;;;;;;-3.23;54.93;99727.34;5019824;28;20068;-83
2022/02/05 07:30:49;;;;;;;62.60;25.50;;;;;;;-2.72;54.42;99734.69;5008730;28;20136;-81
2022/02/05 07:33:15;;;;;;;68.45;26.55;;;;;;;-2.60;53.97;99764.91;5016389;28;20048;-80
2022/02/05 07:35:44;;;;;;;70.85;25.90;;;;;;;-2.61;53.73;99754.66;5009353;28;20060;-80
2022/02/05 07:38:13;;;;;;;66.72;26.63;;;;;;;-3.02;54.02;99693.47;5024718;28;20048;-81
2022/02/05 07:40:45;;;;;;;72.93;29.73;;;;;;;-3.53;53.83;99623.34;5039204;28;20040;-81
2022/02/05 07:43:14;;;;;;;82.70;31.67;;;;;;;-4.13;53.98;99546.91;5039710;28;20556;-82
2022/02/05 07:45:40;;;;;;;72.50;27.60;;;;;;;-2.85;54.17;99762.09;5040103;28;20076;-82
2022/02/05 07:48:07;;;;;;;72.00;27.95;;;;;;;-2.94;54.16;99772.75;5039327;28;20040;-83
2022/02/05 07:50:34;;;;;;;72.75;28.20;;;;;;;-3.22;54.45;99718.06;5021353;28;20115;-80
2022/02/05 07:53:00;;;;;;;72.32;27.65;;;;;;;-3.11;54.16;99733.81;5036985;28;20075;-81
2022/02/05 07:55:25;;;;;;;68.57;27.30;;;;;;;-2.92;54.51;99761.84;5037384;28;20044;-79
2022/02/05 07:58:03;;;;;;;74.32;28.73;;;;;;;-3.04;54.97;99705.25;5039828;28;20041;-79
2022/02/05 08:00:32;;;;;;;75.50;31.35;;;;;;;-2.64;55.14;99759.63;5051422;28;20032;-82
2022/02/05 08:03:01;;;;;;;78.70;30.15;;;;;;;-2.84;54.28;99693.41;5051969;28;20063;-81
2022/02/05 08:05:30;;;;;;;85.00;31.55;;;;;;;-2.33;54.28;99754.16;5028177;28;20043;-79
2022/02/05 08:07:59;;;;;;;83.07;33.08;;;;;;;-3.39;54.47;99593.44;5028654;28;20048;-84
2022/02/05 08:10:47;;;;;;;86.03;34.17;;;;;;;-2.36;54.40;99771.88;5024604;28;20037;-84
2022/02/05 08:13:34;;;;;;;84.20;33.03;;;;;;;-3.38;54.20;99569.72;5039244;28;20033;-83
2022/02/05 08:18:45;;;;;;;74.93;30.77;;;;;;;-3.67;53.81;99517.59;5042065;28;20033;-81
2022/02/05 08:21:15;;;;;;;80.65;29.85;;;;;;;-3.35;54.45;99571.56;5020873;28;20032;-85
2022/02/05 08:23:48;;;;;;;66.80;25.90;;;;;;;-3.43;54.25;99532.16;5055542;28;20067;-80
2022/02/05 08:26:18;;;;;;;66.72;27.48;;;;;;;-3.05;54.41;99554.16;5020734;28;20041;-86
2022/02/05 08:28:44;;;;;;;71.13;25.70;;;;;;;-2.89;54.16;99567.53;5037489;28;20044;-82
2022/02/05 08:31:11;;;;;;;70.63;28.42;;;;;;;-2.29;54.39;99668.47;5034673;28;20128;-79
2022/02/05 08:33:42;;;;;;;74.57;27.67;;;;;;;-2.40;54.05;99636.59;5035127;28;20099;-80
2022/02/05 08:36:09;;;;;;;69.97;27.00;;;;;;;-1.78;54.21;99706.25;5018879;28;20047;-80
2022/02/05 08:38:49;;;;;;;67.68;27.45;;;;;;;-2.15;54.64;99651.19;5036319;28;20573;-83
2022/02/05 08:41:15;;;;;;;65.00;26.65;;;;;;;-2.39;54.60;99582.28;5018638;28;20041;-81
2022/02/05 08:43:47;;;;;;;76.43;30.73;;;;;;;-2.66;54.07;99537.03;5038467;28;20428;-78
2022/02/05 08:46:13;;;;;;;67.35;28.63;;;;;;;-2.23;54.08;99601.59;5036194;28;20041;-82
2022/02/05 08:48:39;;;;;;;73.18;28.60;;;;;;;-1.39;54.12;99720.47;5020492;28;20047;-79
2022/02/05 08:51:33;;;;;;;66.72;26.60;;;;;;;-1.86;53.94;99642.13;5018981;28;20132;-80
2022/02/05 08:54:04;;;;;;;68.55;26.70;;;;;;;-1.21;54.62;99725.41;5042956;28;20049;-80
2022/02/05 08:56:34;;;;;;;65.32;27.17;;;;;;;-0.78;54.36;99742.31;5025532;28;20512;-81
2022/02/05 08:59:17;;;;;;;67.53;26.83;;;;;;;-1.11;53.67;99633.00;5023476;28;20037;-81
2022/02/05 09:02:01;;;;;;;66.93;26.10;;;;;;;-0.68;53.45;99702.59;5056066;28;20420;-79
2022/02/05 09:05:08;;;;;;;60.58;26.13;;;;;;;-1.89;53.70;99503.41;5038082;28;20526;-80
2022/02/05 09:07:19;;;;;;;;;;;;;;;-0.83;53.44;99691.84;5052750;28;20056;-81
2022/02/05 09:14:59;;;;;;;57.03;23.80;;;;;;;-1.13;53.08;99643.94;5054980;28;20037;-80
2022/02/05 09:17:29;;;;;;;55.77;23.97;;;;;;;-1.19;53.65;99608.84;5020690;28;20045;-82
2022/02/05 09:19:55;;;;;;;56.75;23.98;;;;;;;-0.70;53.47;99676.13;5038431;28;20118;-80
2022/02/05 09:22:21;;;;;;;60.88;24.05;;;;;;;-0.65;52.84;99651.59;5022325;28;20063;-81
2022/02/05 09:24:47;;;;;;;61.47;25.08;;;;;;;-0.48;52.54;99641.06;5021566;28;20045;-81
2022/02/05 09:27:36;;;;;;;61.50;25.38;;;;;;;-0.01;53.04;99659.63;5024472;28;20044;-85
2022/02/05 09:30:28;;;;;;;59.85;24.63;;;;;;;0.16;53.40;99590.19;5028072;28;20037;-83
2022/02/05 09:33:11;;;;;;;59.25;22.40;;;;;;;0.20;53.25;99458.09;5005976;28;20208;-85
2022/02/05 09:35:41;;;;;;;57.45;23.40;;;;;;;1.29;52.58;99493.31;5024985;28;20086;-81
2022/02/05 09:38:34;;;;;;;58.28;23.40;;;;;;;3.12;52.16;99624.63;5038954;28;20121;-82
2022/02/05 09:41:09;;;;;;;58.65;23.67;;;;;;;3.29;51.79;99430.31;5050974;28;20060;-82
2022/02/05 09:43:35;;;;;;;62.53;24.33;;;;;;;5.02;50.35;99500.16;5050707;28;20472;-80
2022/02/05 09:46:34;;;;;;;54.83;23.25;;;;;;;6.82;48.51;99560.63;5014777;28;20500;-82
2022/02/05 09:49:02;;;;;;;54.17;23.38;;;;;;;7.95;46.93;99558.06;5019199;28;20505;-79
2022/02/05 09:51:33;;;;;;;55.72;24.13;;;;;;;8.81;44.89;99505.91;5019630;28;20127;-82
2022/02/05 09:54:01;;;;;;;56.15;24.17;;;;;;;10.77;43.73;99565.50;5003723;28;20041;-80
2022/02/05 09:56:30;;;;;;;59.33;26.23;;;;;;;12.22;41.49;99532.78;5039543;28;20132;-80
2022/02/05 09:58:57;;;;;;;52.72;26.05;;;;;;;12.76;38.78;99387.19;5011682;28;20139;-79
2022/02/05 10:01:27;;;;;;;55.03;26.70;;;;;;;14.61;37.07;99555.72;5044177;28;20041;-80
2022/02/05 10:03:54;;;;;;;53.30;26.65;;;;;;;14.95;35.70;99528.53;5061354;28;20523;-82
2022/02/05 10:06:50;;;;;;;56.92;28.27;;;;;;;14.82;34.50;99486.16;5026449;28;20113;-80
2022/02/05 10:09:18;;;;;;;54.60;27.52;;;;;;;13.96;33.80;99541.84;5040894;28;20044;-80
2022/02/05 10:12:00;;;;;;;56.72;28.45;;;;;;;12.18;33.65;99481.53;5021048;28;20036;-81
2022/02/05 10:14:44;;;;;;;56.65;27.98;;;;;;;11.80;34.03;99546.56;5036621;28;20033;-81
2022/02/05 10:17:10;;;;;;;52.60;27.63;;;;;;;11.29;33.74;99521.38;5037845;28;20069;-78
2022/02/05 10:19:55;;;;;;;49.67;26.85;;;;;;;10.29;33.89;99466.38;5038706;28;20041;-79
2022/02/05 10:22:46;;;;;;;55.83;29.02;;;;;;;9.41;33.88;99496.78;5037782;28;20365;-84
2022/02/05 10:25:17;;;;;;;60.50;28.08;;;;;;;8.51;34.60;99481.84;5021534;28;20129;-83
2022/02/05 10:27:45;;;;;;;57.10;28.10;;;;;;;8.26;34.86;99557.16;5006400;28;20136;-79
2022/02/05 10:30:14;;;;;;;44.22;23.63;;;;;;;7.81;35.77;99552.94;5038364;28;20416;-80
2022/02/05 10:32:48;;;;;;;45.70;23.27;;;;;;;6.97;35.37;99497.72;5018744;28;20041;-79
2022/02/05 10:35:39;;;;;;;45.08;23.75;;;;;;;6.76;35.91;99507.16;5018535;28;20049;-82
2022/02/05 10:41:00;;;;;;;45.03;21.85;;;;;;;5.98;36.01;99538.69;5051700;28;20068;-82
2022/02/05 10:43:34;;;;;;;48.92;23.10;;;;;;;5.62;36.68;99543.66;5018580;28;20512;-83
2022/02/05 10:46:05;;;;;;;44.78;22.48;;;;;;;4.94;36.98;99489.78;5037329;28;20198;-79
2022/02/05 10:48:35;;;;;;;49.67;22.55;;;;;;;3.70;36.91;99331.38;5021752;28;20068;-81
2022/02/05 10:51:03;;;;;;;47.38;22.58;;;;;;;4.67;37.15;99540.22;5032312;28;20037;-80
2022/02/05 10:53:33;;;;;;;53.17;24.17;;;;;;;4.48;37.09;99531.44;5026901;28;20098;-84
2022/02/05 10:59:29;;;;;;;55.63;24.45;;;;;;;4.33;37.90;99524.38;5028436;28;20416;-78
2022/02/05 11:07:58;;;;;;;50.65;22.80;;;;;;;3.25;38.61;99431.13;5064128;28;20041;-82
2022/02/05 11:10:37;;;;;;;47.28;21.80;;;;;;;3.43;38.92;99512.84;5025571;28;20037;-79
2022/02/05 11:13:24;;;;;;;48.35;22.23;;;;;;;2.85;38.68;99505.03;5058361;28;20044;-77
2022/02/05 11:18:57;;;;;;;37.70;16.52;;;;;;;2.37;39.78;99506.72;5070497;28;20052;-80
2022/02/05 11:21:29;;;;;;;33.75;16.20;;;;;;;2.15;40.04;99484.88;5041999;28;20040;-79
2022/02/05 11:24:02;;;;;;;37.47;15.23;;;;;;;2.02;40.39;99465.78;5025302;28;20036;-78
2022/02/05 11:26:30;;;;;;;34.67;15.35;;;;;;;1.92;40.38;99478.44;5055377;28;20046;-78
2022/02/05 11:28:58;;;;;;;35.65;15.32;;;;;;;1.62;40.63;99458.13;5045692;28;20114;-82
2022/02/05 11:34:13;;;;;;;29.38;13.68;;;;;;;1.22;40.48;99475.16;5040354;28;20075;-82
2022/02/05 11:36:40;;;;;;;31.95;14.93;;;;;;;0.45;40.52;99387.91;5040132;28;20044;-84
2022/02/05 11:39:10;;;;;;;34.95;15.52;;;;;;;0.95;40.94;99478.81;5056599;28;20045;-81
2022/02/05 11:41:37;;;;;;;35.67;15.57;;;;;;;0.57;40.97;99418.94;5039912;28;20032;-80
2022/02/05 11:44:30;;;;;;;27.80;12.13;;;;;;;0.43;40.88;99416.06;5040660;28;20048;-81
2022/02/05 11:47:09;;;;;;;27.85;12.80;;;;;;;0.65;41.33;99472.94;5005830;28;20052;-81
2022/02/05 11:49:55;;;;;;;24.40;11.13;;;;;;;0.53;41.18;99480.28;5038688;28;20110;-80
2022/02/05 11:52:45;;;;;;;36.10;12.93;;;;;;;0.49;41.87;99475.91;5055061;28;20049;-83
2022/02/05 11:55:28;;;;;;;34.05;13.48;;;;;;;0.42;42.01;99469.75;5020288;28;20044;-81
2022/02/05 11:57:55;;;;;;;30.15;12.90;;;;;;;0.35;41.70;99473.84;5019672;28;20044;-84
2022/02/05 12:00:32;;;;;;;40.33;15.95;;;;;;;-0.06;41.55;99423.25;5036591;28;20097;-85
2022/02/05 12:03:02;;;;;;;32.13;14.70;;;;;;;-0.52;41.74;99376.78;5054410;28;20525;-81
2022/02/05 12:05:36;;;;;;;31.50;13.88;;;;;;;-0.02;41.86;99489.03;5021515;28;20044;-83
2022/02/05 12:08:05;;;;;;;28.40;11.95;;;;;;;-0.21;42.26;99479.09;5036239;28;20094;-81
2022/02/05 12:10:50;;;;;;;24.73;10.73;;;;;;;-0.33;42.01;99490.69;5036099;28;20039;-80
2022/02/05 12:13:17;;;;;;;22.33;9.15;;;;;;;-0.49;42.85;99460.38;5003582;28;20040;-80
2022/02/05 12:16:01;;;;;;;23.85;11.10;;;;;;;-1.09;42.68;99378.47;5037369;28;20033;-80
2022/02/05 12:18:42;;;;;;;;;;;;;;;;;;;;;
2022/02/05 12:21:27;;;;;;;24.30;10.63;;;;;;;-0.75;43.35;99485.97;5039870;28;20052;-83
2022/02/05 12:26:29;;;;;;;26.55;11.05;;;;;;;-1.53;43.32;99378.81;5038587;28;20041;-82
2022/02/05 12:29:01;;;;;;;21.40;10.00;;;;;;;-1.72;43.47;99362.00;5008872;28;20139;-80
2022/02/05 12:31:34;;;;;;;23.42;10.63;;;;;;;-1.28;43.47;99461.31;4992511;28;20036;-82
2022/02/05 12:34:14;;;;;;;21.42;9.02;;;;;;;-1.75;43.78;99415.47;5035529;28;20056;-80
2022/02/05 12:36:54;;;;;;;14.63;7.47;;;;;;;-2.18;43.54;99391.00;5020569;28;20143;-78
2022/02/05 12:39:30;;;;;;;15.63;7.82;;;;;;;-2.00;44.05;99464.75;5019207;28;20053;-84
2022/02/05 12:42:14;;;;;;;16.63;8.75;;;;;;;-2.35;44.67;99434.59;5004220;28;20095;-82
2022/02/05 12:44:44;;;;;;;17.92;8.40;;;;;;;-2.28;44.86;99466.28;5019696;28;20055;-81
2022/02/05 12:47:27;;;;;;;20.38;9.38;;;;;;;-3.43;44.54;99333.69;5054080;28;20061;-82
2022/02/05 12:50:02;;;;;;;19.77;8.95;;;;;;;-2.80;44.66;99426.94;5019555;28;20037;-83
2022/02/05 12:52:46;;;;;;;24.15;9.85;;;;;;;-4.19;45.38;99223.88;5019785;28;20037;-82
2022/02/05 12:55:34;;;;;;;19.83;8.93;;;;;;;-3.19;45.25;99415.25;5042416;28;20128;-81
2022/02/05 12:58:11;;;;;;;19.88;9.18;;;;;;;-4.30;45.97;99249.69;5036251;28;20059;-78
2022/02/05 13:00:37;;;;;;;24.27;9.80;;;;;;;-3.83;46.41;99346.53;5037577;28;20060;-81
2022/02/05 13:03:36;;;;;;;22.77;9.23;;;;;;;-3.44;46.62;99449.00;5033757;28;20045;-82
2022/02/05 13:06:16;;;;;;;27.33;11.70;;;;;;;-4.44;46.94;99310.09;5033545;28;20072;-81
2022/02/05 13:08:53;;;;;;;25.40;10.90;;;;;;;-4.27;46.89;99373.47;5021517;28;20098;-85
2022/02/05 13:11:28;;;;;;;35.55;12.60;;;;;;;-4.44;47.67;99385.44;5006772;28;20128;-84
2022/02/05 13:14:06;;;;;;;32.78;13.35;;;;;;;-4.01;47.90;99481.38;5039469;28;20105;-82
2022/02/05 13:17:12;;;;;;;36.28;14.15;;;;;;;-5.08;48.38;99306.44;5006605;28;20055;-82
2022/02/05 13:20:19;;;;;;;32.70;14.60;;;;;;;-5.02;48.29;99344.75;5058028;28;20550;-83
2022/02/05 13:25:43;;;;;;;35.28;14.95;;;;;;;-5.05;48.95;99353.91;5027783;28;20760;-82
2022/02/05 13:28:41;;;;;;;37.58;14.65;;;;;;;-4.44;49.48;99451.47;5029154;28;20059;-83
2022/02/05 13:34:25;;;;;;;34.03;14.00;;;;;;;-5.29;49.76;99296.16;5037015;28;20094;-84
2022/02/05 13:42:13;;;;;;;32.45;13.20;;;;;;;-4.79;50.28;99380.50;5042179;28;20094;-82
2022/02/05 13:45:00;;;;;;;35.13;14.20;;;;;;;-4.33;50.05;99434.19;5025168;28;20078;-79
2022/02/05 13:47:33;;;;;;;29.65;12.60;;;;;;;-4.54;50.23;99407.91;5038457;28;20511;-80
2022/02/05 13:50:15;;;;;;;31.13;13.23;;;;;;;-4.40;50.52;99440.66;5060983;28;20058;-79
2022/02/05 13:52:53;;;;;;;34.60;13.80;;;;;;;-4.47;50.67;99438.63;5047880;28;20056;-78
2022/02/05 13:55:34;;;;;;;32.40;12.93;;;;;;;-4.51;51.10;99437.63;5051622;28;20048;-79
2022/02/05 13:58:06;;;;;;;32.63;13.48;;;;;;;-4.72;50.74;99412.09;5035545;28;20041;-81
2022/02/05 14:01:03;;;;;;;36.70;13.57;;;;;;;-4.60;50.94;99438.09;5036067;28;20041;-82
2022/02/05 14:03:32;;;;;;;32.25;12.90;;;;;;;-4.61;51.53;99438.00;5070987;28;20393;-80
2022/02/05 14:06:09;;;;;;;31.98;13.10;;;;;;;-4.61;51.08;99426.19;5055466;28;20036;-80
2022/02/05 14:08:46;;;;;;;33.92;13.15;;;;;;;-5.01;51.48;99369.34;5039172;28;20052;-80
2022/02/05 14:11:16;;;;;;;33.33;13.98;;;;;;;-4.67;51.48;99423.34;5037118;28;20067;-79
2022/02/05 14:13:42;;;;;;;37.15;14.02;;;;;;;-4.70;52.01;99430.81;5053478;28;20043;-81
2022/02/05 14:16:09;;;;;;;32.13;13.48;;;;;;;-4.85;52.16;99409.00;5054489;28;20092;-80
2022/02/05 14:18:48;;;;;;;33.35;13.50;;;;;;;-5.06;52.14;99372.47;5051837;28;20017;-80
2022/02/05 14:21:16;;;;;;;32.85;13.73;;;;;;;-4.85;52.14;99414.09;5056379;28;20063;-80
2022/02/05 14:23:53;;;;;;;35.50;14.63;;;;;;;-5.00;51.72;99409.16;5025518;28;20037;-78
2022/02/05 14:26:32;;;;;;;29.52;13.27;;;;;;;-5.02;52.69;99431.06;5057554;28;20041;-79
2022/02/05 14:29:01;;;;;;;44.97;18.52;;;;;;;-5.18;51.71;99410.81;5041103;28;20037;-78
2022/02/05 14:31:41;;;;;;;46.58;20.63;;;;;;;-5.35;51.67;99397.31;5069879;28;20064;-78
2022/02/05 14:41:56;;;;;;;47.38;19.45;;;;;;;-5.78;53.23;99350.47;5075155;28;20041;-77
2022/02/05 14:44:22;;;;;;;55.40;23.13;;;;;;;-5.66;53.64;99389.09;5040130;28;20075;-76
2022/02/05 14:46:48;;;;;;;87.20;32.63;;;;;;;-5.39;53.52;99436.00;5031617;28;20045;-80
2022/02/05 14:49:15;;;;;;;48.45;20.25;;;;;;;-5.57;53.48;99426.72;5061320;28;20037;-80
2022/02/05 14:51:41;;;;;;;48.35;18.45;;;;;;;-5.58;53.44;99402.13;5044809;28;20045;-77